Terminal Aerodrome Forecast
Issued by NWS

Home | Current Version | Previous Version | Text Only | Print | Product List | Glossary On
Versions: 1 2 3 4 5 6 7 8 9 10 11 12 13 14 15 16 17 18
000
FTUS46 KPDT 061122
TAFYKM
TAF
KYKM 061122Z 0612/0712 29008KT P6SM FEW090 BKN150
     FM061700 34008KT P6SM SCT090 BKN150
     FM062000 35011KT P6SM VCSH BKN080 BKN120
     FM062200 33009KT P6SM -SHRA BKN060 OVC100 PROB30 0622/0704
      -TSRA BKN060CB OVC100CB
     FM070400 31010KT P6SM VCSH SCT080 BKN100
     FM070700 30010KT P6SM FEW080 SCT100=

USA.gov is the U.S. government's official web portal to all federal, state and local government web resources and services.